createdAt,value
2019-04-19T00:00:04.551Z,13.85
2019-04-19T00:02:38.333Z,13.56
2019-04-19T00:05:06.263Z,13.63
2019-04-19T00:07:35.758Z,13.45
2019-04-19T00:10:23.669Z,13.15
2019-04-19T00:12:46.866Z,13.22
2019-04-19T00:15:09.680Z,13.18
2019-04-19T00:17:38.825Z,13.19
2019-04-19T00:20:43.092Z,13.47
2019-04-19T00:22:53.989Z,12.98
2019-04-19T00:25:09.400Z,13.07
2019-04-19T00:27:46.066Z,13.05
2019-04-19T00:30:24.313Z,12.87
2019-04-19T00:32:59.427Z,12.84
2019-04-19T00:35:09.523Z,12.65
2019-04-19T00:37:38.618Z,12.70
2019-04-19T00:40:35.015Z,12.73
2019-04-19T00:43:18.609Z,12.58
2019-04-19T00:46:05.824Z,12.38
2019-04-19T00:48:46.072Z,12.38
2019-04-19T00:50:59.845Z,12.04
2019-04-19T00:53:28.297Z,11.86
2019-04-19T00:55:57.341Z,11.86
2019-04-19T00:58:24.393Z,11.74
2019-04-19T01:00:49.095Z,11.37
2019-04-19T01:03:26.523Z,11.31
2019-04-19T01:05:58.125Z,11.14
2019-04-19T01:08:22.623Z,11.23
2019-04-19T01:11:06.027Z,11.03
2019-04-19T01:13:40.333Z,10.96
2019-04-19T01:16:03.068Z,10.82
2019-04-19T01:18:29.904Z,10.73
2019-04-19T01:20:50.150Z,10.54
2019-04-19T01:23:20.110Z,10.57
2019-04-19T01:25:54.655Z,10.83
2019-04-19T01:28:23.003Z,10.67
2019-04-19T01:30:50.760Z,10.55
2019-04-19T01:33:26.465Z,10.45
2019-04-19T01:35:55.338Z,10.23
2019-04-19T01:38:21.572Z,10.24
2019-04-19T01:41:07.666Z,10.33
2019-04-19T01:43:38.479Z,10.26
2019-04-19T01:46:14.552Z,10.28
2019-04-19T01:48:50.712Z,10.25
2019-04-19T01:51:36.807Z,10.14
2019-04-19T01:54:06.674Z,10.11
2019-04-19T01:56:19.727Z,10.26
2019-04-19T01:58:53.600Z,9.99
2019-04-19T02:01:22.092Z,10.22
2019-04-19T02:03:49.396Z,10.00
2019-04-19T02:06:21.378Z,10.01
2019-04-19T02:08:51.965Z,9.79
2019-04-19T02:11:49.443Z,10.00
2019-04-19T02:14:17.065Z,9.88
2019-04-19T02:16:41.385Z,9.99
2019-04-19T02:19:16.320Z,9.87
2019-04-19T02:21:44.320Z,9.85
2019-04-19T02:24:12.529Z,9.98
2019-04-19T02:26:50.047Z,9.62
2019-04-19T02:29:17.775Z,9.33
2019-04-19T02:32:09.182Z,9.49
2019-04-19T02:34:49.565Z,9.42
2019-04-19T02:44:44.976Z,9.17
2019-04-19T02:49:46.027Z,8.51
2019-04-19T02:52:22.165Z,8.94
2019-04-19T02:54:50.185Z,8.86
2019-04-19T03:00:17.035Z,9.05
2019-04-19T03:02:50.276Z,8.91
2019-04-19T03:07:15.959Z,8.87
2019-04-19T03:09:46.853Z,9.04
2019-04-19T03:12:38.456Z,8.87
2019-04-19T03:15:02.022Z,8.70
2019-04-19T03:17:35.093Z,8.59
2019-04-19T03:20:00.716Z,8.57
2019-04-19T03:22:31.063Z,8.53
2019-04-19T03:25:07.956Z,8.59
2019-04-19T03:27:24.430Z,8.49
2019-04-19T03:29:48.970Z,8.26
2019-04-19T03:32:55.697Z,8.47
2019-04-19T03:35:04.131Z,8.24
2019-04-19T03:37:38.064Z,8.47
2019-04-19T03:40:14.477Z,8.30
2019-04-19T03:42:40.937Z,8.44
2019-04-19T03:45:08.214Z,8.45
2019-04-19T03:47:47.237Z,8.48
2019-04-19T03:50:11.109Z,8.46
2019-04-19T03:52:37.622Z,8.24
2019-04-19T03:55:15.590Z,8.56
2019-04-19T03:57:31.488Z,8.22
2019-04-19T03:59:52.293Z,8.26
2019-04-19T04:02:24.551Z,8.44
2019-04-19T04:04:57.107Z,8.32
2019-04-19T04:07:25.773Z,8.47
2019-04-19T04:09:59.745Z,8.55
2019-04-19T04:12:39.584Z,8.13
2019-04-19T04:15:14.165Z,7.99
2019-04-19T04:17:35.370Z,7.88
2019-04-19T04:20:07.428Z,7.81
2019-04-19T04:22:40.100Z,7.71
2019-04-19T04:25:15.430Z,7.63
2019-04-19T04:27:49.712Z,8.12
2019-04-19T04:30:17.616Z,7.99
2019-04-19T04:32:51.468Z,7.79
2019-04-19T04:35:27.281Z,7.83
2019-04-19T04:37:52.594Z,7.84
2019-04-19T04:40:08.945Z,8.03
2019-04-19T04:42:44.394Z,7.75
2019-04-19T04:45:33.132Z,7.76
2019-04-19T04:48:01.386Z,7.82
2019-04-19T04:50:57.735Z,7.78
2019-04-19T04:53:13.032Z,7.58
2019-04-19T04:55:49.612Z,7.71
2019-04-19T04:58:22.034Z,7.64
2019-04-19T05:00:50.924Z,7.60
2019-04-19T05:03:35.589Z,7.67
2019-04-19T05:06:06.471Z,7.53
2019-04-19T05:08:37.363Z,7.86
2019-04-19T05:11:05.623Z,7.81
2019-04-19T05:13:33.427Z,7.89
2019-04-19T05:16:06.816Z,8.32
2019-04-19T05:18:34.641Z,8.89
2019-04-19T05:21:06.542Z,9.49
2019-04-19T05:23:32.242Z,9.97
2019-04-19T05:26:21.500Z,10.44
2019-04-19T05:28:38.616Z,10.87
2019-04-19T05:30:55.654Z,11.14
2019-04-19T05:33:34.265Z,11.20
2019-04-19T05:36:12.188Z,11.37
2019-04-19T05:38:44.922Z,11.75
2019-04-19T05:41:10.332Z,11.72
2019-04-19T05:44:14.282Z,11.78
2019-04-19T05:46:41.927Z,12.10
2019-04-19T05:49:04.740Z,12.41
2019-04-19T05:51:43.669Z,12.13
2019-04-19T05:53:55.177Z,12.35
2019-04-19T05:56:22.080Z,12.47
2019-04-19T05:59:02.756Z,12.57
2019-04-19T06:01:43.210Z,12.75
2019-04-19T06:04:11.752Z,13.08
2019-04-19T06:06:45.713Z,13.48
2019-04-19T06:08:52.030Z,14.18
2019-04-19T06:11:23.132Z,14.28
2019-04-19T06:14:12.698Z,14.45
2019-04-19T06:16:35.027Z,14.38
2019-04-19T06:19:17.011Z,14.36
2019-04-19T06:21:46.053Z,14.38
2019-04-19T06:24:23.386Z,14.47
2019-04-19T06:27:04.579Z,14.43
2019-04-19T06:29:25.614Z,14.58
2019-04-19T06:32:00.668Z,14.60
2019-04-19T06:34:21.599Z,14.68
2019-04-19T06:36:31.323Z,14.71
2019-04-19T06:38:59.798Z,14.77
2019-04-19T06:41:36.569Z,14.72
2019-04-19T06:44:09.514Z,14.85
2019-04-19T06:46:41.525Z,14.77
2019-04-19T06:49:04.882Z,14.74
2019-04-19T06:51:38.769Z,14.74
2019-04-19T06:54:03.961Z,14.89
2019-04-19T06:56:35.414Z,14.94
2019-04-19T06:59:10.391Z,15.03
2019-04-19T07:01:40.246Z,15.01
2019-04-19T07:04:02.093Z,15.03
2019-04-19T07:06:44.271Z,15.12
2019-04-19T07:09:29.381Z,15.07
2019-04-19T07:12:00.752Z,15.28
2019-04-19T07:14:08.574Z,15.42
2019-04-19T07:16:50.094Z,15.32
2019-04-19T07:19:20.206Z,15.46
2019-04-19T07:21:46.893Z,15.56
2019-04-19T07:24:30.712Z,15.66
2019-04-19T07:26:56.546Z,15.57
2019-04-19T07:29:04.321Z,15.84
2019-04-19T07:31:35.092Z,15.86
2019-04-19T07:34:13.503Z,15.78
2019-04-19T07:36:49.887Z,15.92
2019-04-19T07:39:25.657Z,16.11
2019-04-19T07:41:56.263Z,16.16
2019-04-19T07:44:25.592Z,16.33
2019-04-19T07:47:13.976Z,16.26
2019-04-19T07:49:40.493Z,16.40
2019-04-19T07:52:12.373Z,16.43
2019-04-19T07:54:35.699Z,16.59
2019-04-19T07:57:40.477Z,16.45
2019-04-19T08:00:01.053Z,16.78
2019-04-19T08:02:36.014Z,16.83
2019-04-19T08:07:41.517Z,16.63
2019-04-19T08:12:33.644Z,16.85
2019-04-19T08:15:06.371Z,16.97
2019-04-19T08:29:47.249Z,17.51
2019-04-19T08:32:10.815Z,17.52
2019-04-19T08:34:40.262Z,17.50
2019-04-19T08:37:19.927Z,17.42
2019-04-19T08:39:55.029Z,17.64
2019-04-19T08:42:31.071Z,17.67
2019-04-19T08:44:51.266Z,17.68
2019-04-19T08:47:26.194Z,17.72
2019-04-19T08:49:52.957Z,17.92
2019-04-19T08:52:27.255Z,17.91
2019-04-19T08:55:13.885Z,18.09
2019-04-19T08:57:26.053Z,18.08
2019-04-19T09:00:17.258Z,17.99
2019-04-19T09:02:41.028Z,17.91
2019-04-19T09:05:15.624Z,18.74
2019-04-19T09:10:27.237Z,18.56
2019-04-19T09:12:39.809Z,18.69
2019-04-19T09:15:12.551Z,18.66
2019-04-19T09:18:09.927Z,18.70
2019-04-19T09:20:15.809Z,19.13
2019-04-19T09:22:56.633Z,19.05
2019-04-19T09:25:28.899Z,19.23
2019-04-19T09:28:07.780Z,19.18
2019-04-19T09:30:37.936Z,19.48
2019-04-19T09:32:50.009Z,19.63
2019-04-19T09:35:21.904Z,19.59
2019-04-19T09:38:01.293Z,19.43
2019-04-19T09:40:29.364Z,19.43
2019-04-19T09:42:58.555Z,19.39
2019-04-19T09:45:20.986Z,19.66
2019-04-19T09:47:50.325Z,19.71
2019-04-19T09:50:35.802Z,19.77
2019-04-19T09:53:14.809Z,19.96
2019-04-19T09:55:43.314Z,20.21
2019-04-19T09:58:13.963Z,20.24
2019-04-19T10:00:26.739Z,19.98
2019-04-19T10:02:58.929Z,20.45
2019-04-19T10:05:24.124Z,20.71
2019-04-19T10:07:52.978Z,20.55
2019-04-19T10:10:22.755Z,20.41
2019-04-19T10:12:51.842Z,20.23
2019-04-19T10:15:28.408Z,20.49
2019-04-19T10:17:56.927Z,20.58
2019-04-19T10:20:27.287Z,20.24
2019-04-19T10:22:58.376Z,20.58
2019-04-19T10:25:27.702Z,20.58
2019-04-19T10:27:56.094Z,20.61
2019-04-19T10:30:32.317Z,21.06
2019-04-19T10:33:00.924Z,20.64
2019-04-19T10:35:29.537Z,20.79
2019-04-19T10:37:58.303Z,21.07
2019-04-19T10:40:27.799Z,21.04
2019-04-19T10:42:56.739Z,21.45
2019-04-19T10:45:25.902Z,21.62
2019-04-19T10:47:55.679Z,21.37
2019-04-19T10:50:35.835Z,21.48
2019-04-19T10:52:56.555Z,21.47
2019-04-19T10:55:26.704Z,21.39
2019-04-19T10:57:55.157Z,21.63
2019-04-19T11:00:24.853Z,21.55
2019-04-19T11:02:54.709Z,21.71
2019-04-19T11:05:24.872Z,21.90
2019-04-19T11:07:53.767Z,21.56
2019-04-19T11:10:22.661Z,21.88
2019-04-19T11:12:52.442Z,21.98
2019-04-19T11:15:22.362Z,22.20
2019-04-19T11:17:51.814Z,22.12
2019-04-19T11:20:31.862Z,22.23
2019-04-19T11:22:51.207Z,22.18
2019-04-19T11:25:20.172Z,22.31
2019-04-19T11:27:51.176Z,22.23
2019-04-19T11:30:32.934Z,22.15
2019-04-19T11:33:03.210Z,21.91
2019-04-19T11:35:39.560Z,22.21
2019-04-19T11:38:08.961Z,22.28
2019-04-19T11:40:37.530Z,21.91
2019-04-19T11:43:07.015Z,22.08
2019-04-19T11:45:37.729Z,22.27
2019-04-19T11:48:06.358Z,22.10
2019-04-19T11:50:35.867Z,22.30
2019-04-19T11:53:18.545Z,22.21
2019-04-19T11:55:56.246Z,22.20
2019-04-19T11:58:26.348Z,22.43
2019-04-19T12:01:03.734Z,22.42
2019-04-19T12:03:32.330Z,22.54
2019-04-19T12:06:02.276Z,22.48
2019-04-19T12:08:30.927Z,22.28
2019-04-19T12:11:00.104Z,22.50
2019-04-19T12:13:30.335Z,22.64
2019-04-19T12:15:59.070Z,22.35
2019-04-19T12:18:28.482Z,22.57
2019-04-19T12:20:57.497Z,22.39
2019-04-19T12:23:26.099Z,22.38
2019-04-19T12:25:55.607Z,22.60
2019-04-19T12:28:24.147Z,22.76
2019-04-19T12:30:55.606Z,22.63
2019-04-19T12:33:23.719Z,22.73
2019-04-19T12:35:53.047Z,22.56
2019-04-19T12:38:22.276Z,22.60
2019-04-19T12:40:56.139Z,22.74
2019-04-19T12:43:25.992Z,22.63
2019-04-19T12:45:55.537Z,22.83
2019-04-19T12:48:25.685Z,22.85
2019-04-19T12:50:55.607Z,23.09
2019-04-19T12:53:25.284Z,22.82
2019-04-19T12:55:54.084Z,23.23
2019-04-19T12:58:23.901Z,23.32
2019-04-19T13:00:58.560Z,22.94
2019-04-19T13:03:39.576Z,23.24
2019-04-19T13:06:13.438Z,23.24
2019-04-19T13:08:43.242Z,23.12
2019-04-19T13:11:11.933Z,23.03
2019-04-19T13:13:41.563Z,23.01
2019-04-19T13:16:10.317Z,23.54
2019-04-19T13:18:38.768Z,23.24
2019-04-19T13:21:08.160Z,23.48
2019-04-19T13:23:38.062Z,23.13
2019-04-19T13:26:07.264Z,23.20
2019-04-19T13:28:36.036Z,23.19
2019-04-19T13:31:05.988Z,23.09
2019-04-19T13:33:36.612Z,23.22
2019-04-19T13:36:07.431Z,23.07
2019-04-19T13:38:43.431Z,23.27
2019-04-19T13:41:30.106Z,23.10
2019-04-19T13:43:58.733Z,23.33
2019-04-19T13:46:28.508Z,23.46
2019-04-19T13:48:57.243Z,23.54
2019-04-19T13:53:54.513Z,23.57
2019-04-19T13:56:24.592Z,23.52
2019-04-19T13:58:53.781Z,23.58
2019-04-19T14:01:22.695Z,23.45
2019-04-19T14:03:51.431Z,23.46
2019-04-19T14:06:20.149Z,23.63
2019-04-19T14:08:49.043Z,23.72
2019-04-19T14:11:19.297Z,23.82
2019-04-19T14:13:53.403Z,23.69
2019-04-19T14:16:18.768Z,23.77
2019-04-19T14:18:47.365Z,23.47
2019-04-19T14:21:17.075Z,23.54
2019-04-19T14:23:45.826Z,23.69
2019-04-19T14:26:18.884Z,23.79
2019-04-19T14:28:45.500Z,23.59
2019-04-19T14:31:14.451Z,23.78
2019-04-19T14:33:43.326Z,23.68
2019-04-19T14:36:11.842Z,23.54
2019-04-19T14:38:41.394Z,23.87
2019-04-19T14:41:11.511Z,23.81
2019-04-19T14:43:40.614Z,23.92
2019-04-19T14:46:11.095Z,23.75
2019-04-19T14:48:41.793Z,23.82
2019-04-19T14:51:18.409Z,23.86
2019-04-19T14:53:40.793Z,23.61
2019-04-19T14:56:09.663Z,23.54
2019-04-19T14:58:38.357Z,23.81
2019-04-19T15:01:24.847Z,23.72
2019-04-19T15:03:55.058Z,23.70
2019-04-19T15:06:23.905Z,23.81
2019-04-19T15:08:53.760Z,23.61
2019-04-19T15:11:23.417Z,23.81
2019-04-19T15:13:54.068Z,23.88
2019-04-19T15:16:23.197Z,23.85
2019-04-19T15:18:52.119Z,24.12
2019-04-19T15:21:22.035Z,23.94
2019-04-19T15:23:52.447Z,23.69
2019-04-19T15:26:22.592Z,23.80
2019-04-19T15:28:51.207Z,23.88
2019-04-19T15:31:20.651Z,23.89
2019-04-19T15:33:50.235Z,23.64
2019-04-19T15:36:19.728Z,23.68
2019-04-19T15:38:50.088Z,23.61
2019-04-19T15:41:19.887Z,23.56
2019-04-19T15:43:48.571Z,23.59
2019-04-19T15:46:17.691Z,23.50
2019-04-19T15:48:50.218Z,23.66
2019-04-19T15:51:24.703Z,23.71
2019-04-19T15:53:48.802Z,23.70
2019-04-19T15:56:18.187Z,23.63
2019-04-19T15:58:47.347Z,23.62
2019-04-19T16:01:17.634Z,23.57
2019-04-19T16:03:59.484Z,23.51
2019-04-19T16:06:30.135Z,23.63
2019-04-19T16:09:01.233Z,23.62
2019-04-19T16:11:49.052Z,23.52
2019-04-19T16:14:18.012Z,23.47
2019-04-19T16:16:47.429Z,23.44
2019-04-19T16:19:16.457Z,23.52
2019-04-19T16:21:50.155Z,23.47
2019-04-19T16:24:15.450Z,23.47
2019-04-19T16:26:44.812Z,23.42
2019-04-19T16:29:24.393Z,23.44
2019-04-19T16:31:44.684Z,23.51
2019-04-19T16:34:16.296Z,23.60
2019-04-19T16:36:43.958Z,23.33
2019-04-19T16:39:12.731Z,23.33
2019-04-19T16:41:42.503Z,23.24
2019-04-19T16:44:11.599Z,23.19
2019-04-19T16:46:41.108Z,23.18
2019-04-19T16:49:10.673Z,23.27
2019-04-19T16:51:45.862Z,23.18
2019-04-19T16:54:10.189Z,23.14
2019-04-19T16:56:39.679Z,23.16
2019-04-19T16:59:08.369Z,23.15
2019-04-19T17:01:36.903Z,23.05
2019-04-19T17:04:05.818Z,23.06
2019-04-19T17:06:34.529Z,22.95
2019-04-19T17:09:04.721Z,22.87
2019-04-19T17:11:34.235Z,22.88
2019-04-19T17:14:04.856Z,22.90
2019-04-19T17:16:50.826Z,22.78
2019-04-19T17:19:28.746Z,22.73
2019-04-19T17:22:06.176Z,22.72
2019-04-19T17:24:29.190Z,22.59
2019-04-19T17:26:58.734Z,22.27
2019-04-19T17:29:28.823Z,22.20
2019-04-19T17:31:58.340Z,22.20
2019-04-19T17:34:26.844Z,22.04
2019-04-19T17:36:55.977Z,22.06
2019-04-19T17:39:24.711Z,22.35
2019-04-19T17:41:54.553Z,22.15
2019-04-19T17:44:23.834Z,21.75
2019-04-19T17:46:52.457Z,21.36
2019-04-19T17:49:20.915Z,21.35
2019-04-19T17:51:58.804Z,21.57
2019-04-19T17:54:39.115Z,21.35
2019-04-19T17:56:51.158Z,21.13
2019-04-19T17:59:22.988Z,21.02
2019-04-19T18:01:52.989Z,20.82
2019-04-19T18:04:21.996Z,20.62
2019-04-19T18:06:56.434Z,20.50
2019-04-19T18:09:22.861Z,20.08
2019-04-19T18:11:51.493Z,19.59
2019-04-19T18:14:20.274Z,19.36
2019-04-19T18:16:48.811Z,19.15
2019-04-19T18:19:26.359Z,18.77
2019-04-19T18:21:48.183Z,18.45
2019-04-19T18:24:21.296Z,18.44
2019-04-19T18:26:47.048Z,18.23
2019-04-19T18:29:21.280Z,18.15
2019-04-19T18:31:50.976Z,17.88
2019-04-19T18:34:19.469Z,17.77
2019-04-19T18:36:51.718Z,17.70
2019-04-19T18:39:18.295Z,17.58
2019-04-19T18:41:47.622Z,17.60
2019-04-19T18:44:23.742Z,17.54
2019-04-19T18:46:46.820Z,17.37
2019-04-19T18:49:15.876Z,17.38
2019-04-19T18:51:47.090Z,17.54
2019-04-19T18:54:22.913Z,17.59
2019-04-19T18:56:48.822Z,17.44
2019-04-19T18:59:21.885Z,17.38
2019-04-19T19:01:46.366Z,17.29
2019-04-19T19:04:19.698Z,17.28
2019-04-19T19:06:48.080Z,17.11
2019-04-19T19:09:18.294Z,16.90
2019-04-19T19:11:58.567Z,16.79
2019-04-19T19:14:21.018Z,16.61
2019-04-19T19:16:51.327Z,16.42
2019-04-19T19:19:25.182Z,16.28
2019-04-19T19:21:50.385Z,16.28
2019-04-19T19:24:40.474Z,16.19
2019-04-19T19:27:00.970Z,16.19
2019-04-19T19:29:20.326Z,16.26
2019-04-19T19:31:50.425Z,16.25
2019-04-19T19:36:52.755Z,16.40
2019-04-19T19:39:30.386Z,16.36
2019-04-19T19:41:56.629Z,16.33
2019-04-19T19:44:37.365Z,16.16
2019-04-19T19:47:41.019Z,15.88
2019-04-19T19:50:13.751Z,15.65
2019-04-19T19:52:29.078Z,15.27
2019-04-19T19:55:02.657Z,15.23
2019-04-19T19:57:30.088Z,15.02
2019-04-19T20:00:01.854Z,14.98
2019-04-19T20:02:25.774Z,14.89
2019-04-19T20:04:47.681Z,14.71
2019-04-19T20:07:20.672Z,14.65
2019-04-19T20:09:50.087Z,14.44
2019-04-19T20:12:21.438Z,14.40
2019-04-19T20:14:50.966Z,14.09
2019-04-19T20:17:18.188Z,14.10
2019-04-19T20:19:49.559Z,13.83
2019-04-19T20:22:17.271Z,13.81
2019-04-19T20:24:55.239Z,13.69
2019-04-19T20:27:21.897Z,13.67
2019-04-19T20:29:55.190Z,13.59
2019-04-19T20:32:20.600Z,13.72
2019-04-19T20:34:47.728Z,13.33
2019-04-19T20:37:19.418Z,13.23
2019-04-19T20:39:48.442Z,13.25
2019-04-19T20:42:25.188Z,13.09
2019-04-19T20:45:00.360Z,13.10
2019-04-19T20:47:23.165Z,13.12
2019-04-19T20:49:49.988Z,13.05
2019-04-19T20:52:45.475Z,13.04
2019-04-19T20:55:25.082Z,12.82
2019-04-19T20:57:58.880Z,12.68
2019-04-19T21:00:40.655Z,12.48
2019-04-19T21:03:10.971Z,12.57
2019-04-19T21:05:44.540Z,12.58
2019-04-19T21:08:12.683Z,12.40
2019-04-19T21:10:49.994Z,12.27
2019-04-19T21:13:12.796Z,12.38
2019-04-19T21:15:41.783Z,12.34
2019-04-19T21:18:16.881Z,12.37
2019-04-19T21:20:41.047Z,12.24
2019-04-19T21:23:16.133Z,12.11
2019-04-19T21:25:47.963Z,12.06
2019-04-19T21:28:10.511Z,11.82
2019-04-19T21:30:45.052Z,11.79
2019-04-19T21:33:13.690Z,11.85
2019-04-19T21:35:48.492Z,11.84
2019-04-19T21:38:16.980Z,11.65
2019-04-19T21:40:43.484Z,11.64
2019-04-19T21:43:11.231Z,11.59
2019-04-19T21:45:43.214Z,11.43
2019-04-19T21:48:10.999Z,11.18
2019-04-19T21:50:43.798Z,11.52
2019-04-19T21:53:11.147Z,11.27
2019-04-19T21:55:42.700Z,11.31
2019-04-19T21:58:13.395Z,11.04
2019-04-19T22:00:56.285Z,11.00
2019-04-19T22:03:21.481Z,11.08
2019-04-19T22:05:47.412Z,10.85
2019-04-19T22:08:24.764Z,10.87
2019-04-19T22:10:48.307Z,10.84
2019-04-19T22:13:16.748Z,10.89
2019-04-19T22:15:52.124Z,10.92
2019-04-19T22:18:15.646Z,10.59
2019-04-19T22:20:51.335Z,10.59
2019-04-19T22:23:16.100Z,10.57
2019-04-19T22:25:52.590Z,10.49
2019-04-19T22:28:15.380Z,10.71
2019-04-19T22:30:48.733Z,10.73
2019-04-19T22:33:14.435Z,10.33
2019-04-19T22:35:46.944Z,10.21
2019-04-19T22:38:17.895Z,10.23
2019-04-19T22:40:45.030Z,10.15
2019-04-19T22:43:15.071Z,10.21
2019-04-19T22:45:44.560Z,10.27
2019-04-19T22:48:16.779Z,10.10
2019-04-19T22:50:44.492Z,10.15
2019-04-19T22:53:17.269Z,10.13
2019-04-19T22:55:52.206Z,9.86
2019-04-19T22:58:17.715Z,9.88
2019-04-19T23:00:47.134Z,10.04
2019-04-19T23:03:27.285Z,10.10
2019-04-19T23:05:50.369Z,10.08
2019-04-19T23:08:29.838Z,10.00
2019-04-19T23:10:57.046Z,9.92
2019-04-19T23:13:25.187Z,9.99
2019-04-19T23:15:58.897Z,9.77
2019-04-19T23:18:25.826Z,9.53
2019-04-19T23:20:55.735Z,9.64
2019-04-19T23:23:29.405Z,9.74
2019-04-19T23:26:06.195Z,9.51
2019-04-19T23:28:31.627Z,9.75
2019-04-19T23:31:01.981Z,9.69
2019-04-19T23:33:26.263Z,9.62
2019-04-19T23:35:55.529Z,9.69
2019-04-19T23:38:27.704Z,9.76
2019-04-19T23:40:55.223Z,9.74
2019-04-19T23:43:29.503Z,9.52
2019-04-19T23:45:54.216Z,9.42
2019-04-19T23:48:26.437Z,9.25
2019-04-19T23:50:54.559Z,9.26
2019-04-19T23:53:29.952Z,9.40
2019-04-19T23:55:54.191Z,9.42
2019-04-19T23:58:28.609Z,9.44
